Terminal Aerodrome Forecast
Issued by NWS

Home | Current Version | Previous Version | Text Only | Print | Product List | Glossary On
Versions: 1 2 3 4 5 6 7 8 9 10 11 12 13 14 15 16 17
000
FTUS46 KSEW 030902 AAA
TAFHQM
TAF AMD
KHQM 030902Z 0309/0406 VRB03KT P6SM BKN160
     FM031200 25003KT 4SM BR OVC006
     FM031900 24013G20KT P6SM BKN012
      TEMPO 0322/0402 SCT012
     FM040200 26010KT P6SM OVC015=

USA.gov is the U.S. government's official web portal to all federal, state and local government web resources and services.